Time;durP1;ratioP1;P1;durP2;ratioP2;P2;SDS_P1;SDS_P2;PMS_P1;PMS_P2;Temp;Humidity;BMP_temperature;BMP_pressure;BME280_temperature;BME280_humidity;BME280_pressure;Samples;Min_cycle;Max_cycle;Signal;HPM_P1;HPM_P2
2023/05/26 00:01:30;;;;;;;23.88;6.05;;;;;;;11.61;65.57;102964.63;7389218;19;20025;-47
2023/05/26 00:03:58;;;;;;;21.67;6.40;;;;;;;11.62;65.63;102962.84;7389540;19;20043;-46
2023/05/26 00:06:26;;;;;;;21.77;6.28;;;;;;;11.65;65.62;102966.22;7389519;19;20121;-46
2023/05/26 00:08:53;;;;;;;30.08;6.68;;;;;;;11.61;65.40;102971.72;7388935;19;20014;-44
2023/05/26 00:11:20;;;;;;;25.40;6.30;;;;;;;11.52;65.93;102967.66;7393464;19;20365;-45
2023/05/26 00:13:47;;;;;;;32.05;6.85;;;;;;;11.54;65.78;102967.59;7397143;19;20029;-48
2023/05/26 00:16:14;;;;;;;24.52;6.65;;;;;;;11.44;66.08;102961.81;7394081;19;20015;-45
2023/05/26 00:18:41;;;;;;;28.27;5.80;;;;;;;11.39;66.14;102962.00;7395000;19;20044;-45
2023/05/26 00:21:08;;;;;;;28.90;6.97;;;;;;;11.36;66.28;102966.56;7393102;19;20027;-46
2023/05/26 00:23:35;;;;;;;28.00;6.75;;;;;;;11.32;66.22;102965.84;7396840;19;20480;-46
2023/05/26 00:26:03;;;;;;;26.70;6.15;;;;;;;11.39;66.02;102967.31;7392296;19;20020;-45
2023/05/26 00:28:30;;;;;;;23.42;5.60;;;;;;;11.36;66.21;102970.09;7396154;19;20101;-48
2023/05/26 00:30:57;;;;;;;27.35;6.10;;;;;;;11.31;66.40;102973.88;7395475;19;20018;-48
2023/05/26 00:33:25;;;;;;;27.23;6.82;;;;;;;11.22;66.38;102965.38;7395551;19;20369;-47
2023/05/26 00:35:52;;;;;;;25.08;6.28;;;;;;;11.27;nan;102970.47;7394207;19;20078;-48
2023/05/26 00:38:19;;;;;;;25.52;5.88;;;;;;;11.21;66.32;102968.91;7396914;19;20014;-45
2023/05/26 00:40:46;;;;;;;26.00;6.82;;;;;;;11.08;66.79;102972.16;7395483;19;20122;-46
2023/05/26 00:43:13;;;;;;;23.73;7.07;;;;;;;11.04;67.16;102965.25;7396372;19;20025;-46
2023/05/26 00:45:40;;;;;;;33.28;6.78;;;;;;;10.97;67.05;102972.56;7393729;19;20019;-45
2023/05/26 00:48:07;;;;;;;26.88;5.93;;;;;;;10.97;67.21;102967.28;7396175;19;20050;-48
2023/05/26 00:50:34;;;;;;;25.75;6.53;;;;;;;10.87;67.41;102971.19;7393424;19;20014;-45
2023/05/26 00:53:01;;;;;;;26.73;6.35;;;;;;;10.87;67.30;102972.06;7395492;19;20015;-47
2023/05/26 00:55:30;;;;;;;26.17;6.32;;;;;;;11.01;66.73;102974.19;7395398;19;20376;-47
2023/05/26 00:57:57;;;;;;;22.33;5.63;;;;;;;10.94;66.98;102976.19;7395262;19;20024;-45
2023/05/26 01:00:25;;;;;;;26.67;6.82;;;;;;;10.94;67.04;102972.69;7394936;19;20019;-46
2023/05/26 01:02:56;;;;;;;26.67;6.70;;;;;;;10.89;67.12;102972.88;7396275;19;20349;-45
2023/05/26 01:05:24;;;;;;;29.65;5.93;;;;;;;10.90;67.07;102973.72;7395198;19;20018;-47
2023/05/26 01:07:51;;;;;;;22.00;5.75;;;;;;;10.97;66.66;102986.69;7395280;19;20036;-49
2023/05/26 01:10:18;;;;;;;24.02;6.15;;;;;;;10.95;66.88;102972.66;7394198;19;20018;-46
2023/05/26 01:12:57;;;;;;;29.02;6.57;;;;;;;11.07;66.38;102981.03;7392968;19;20018;-48
2023/05/26 01:15:30;;;;;;;28.38;6.60;;;;;;;10.78;67.10;102979.53;7394875;19;20025;-46
2023/05/26 01:17:57;;;;;;;23.58;6.15;;;;;;;10.79;67.26;102975.94;7394884;19;20025;-46
2023/05/26 01:20:31;;;;;;;23.52;5.93;;;;;;;10.75;67.19;102983.16;7393815;19;20416;-46
2023/05/26 01:23:22;;;;;;;20.98;5.70;;;;;;;10.77;67.15;102977.81;7394966;19;20401;-45
2023/05/26 01:26:08;;;;;;;22.95;5.50;;;;;;;10.59;67.54;102976.72;7394246;19;20018;-48
2023/05/26 01:28:39;;;;;;;24.35;6.18;;;;;;;10.57;67.88;102981.19;7393745;19;20023;-46
2023/05/26 01:31:07;;;;;;;24.23;5.78;;;;;;;10.67;67.32;102977.28;7392797;19;20023;-46
2023/05/26 01:33:35;;;;;;;23.35;5.95;;;;;;;10.66;67.23;102991.47;7394693;19;20019;-45
2023/05/26 01:36:02;;;;;;;22.80;5.78;;;;;;;10.76;66.93;102987.53;7394706;19;20018;-47
2023/05/26 01:38:29;;;;;;;25.45;6.10;;;;;;;10.74;66.76;102999.97;7392236;19;20022;-49
2023/05/26 01:41:06;;;;;;;24.65;6.13;;;;;;;10.74;66.69;103005.28;7393789;19;20014;-46
2023/05/26 01:43:43;;;;;;;22.23;6.10;;;;;;;10.59;67.11;103001.41;7394271;19;20090;-48
2023/05/26 01:46:22;;;;;;;22.08;5.97;;;;;;;10.55;67.27;103002.44;7393814;19;20132;-47
2023/05/26 01:48:51;;;;;;;22.05;5.97;;;;;;;10.45;67.33;103009.91;7393404;19;20031;-45
2023/05/26 01:51:21;;;;;;;21.52;6.05;;;;;;;10.48;67.34;103001.81;7393248;19;20507;-46
2023/05/26 01:53:51;;;;;;;20.10;5.75;;;;;;;10.50;67.26;103009.72;7391721;19;20014;-48
2023/05/26 01:56:21;;;;;;;28.30;6.20;;;;;;;10.42;67.62;103007.34;7393535;19;20086;-47
2023/05/26 01:58:51;;;;;;;21.38;5.13;;;;;;;10.42;67.58;103012.66;7392629;19;20018;-46
2023/05/26 02:01:18;;;;;;;27.30;5.78;;;;;;;10.40;67.22;103014.47;7392537;19;20022;-46
2023/05/26 02:03:46;;;;;;;23.20;5.80;;;;;;;10.36;67.47;103012.88;7393587;19;20018;-46
2023/05/26 02:06:13;;;;;;;22.08;5.97;;;;;;;10.39;67.30;103018.06;7393531;19;20014;-45
2023/05/26 02:08:40;;;;;;;26.70;6.28;;;;;;;10.43;67.10;103014.38;7392411;19;20494;-45
2023/05/26 02:11:07;;;;;;;26.50;6.18;;;;;;;10.25;67.61;103017.69;7392348;19;20022;-48
2023/05/26 02:13:34;;;;;;;21.95;5.53;;;;;;;9.99;68.10;103019.41;7391725;19;20026;-45
2023/05/26 02:16:01;;;;;;;24.35;6.15;;;;;;;10.08;68.36;103026.19;7390977;19;20021;-46
2023/05/26 02:18:28;;;;;;;24.33;5.93;;;;;;;10.29;67.83;103029.03;7392443;19;20021;-46
2023/05/26 02:20:55;;;;;;;20.20;5.63;;;;;;;10.21;67.53;103027.47;7392122;19;20505;-44
2023/05/26 02:23:22;;;;;;;19.23;5.60;;;;;;;10.32;67.13;103023.63;7392565;19;20634;-45
2023/05/26 02:25:50;;;;;;;21.55;5.43;;;;;;;10.02;67.98;103029.91;7392103;19;20089;-48
2023/05/26 02:28:17;;;;;;;20.17;5.40;;;;;;;10.01;68.36;103022.91;7392532;19;20483;-49
2023/05/26 02:30:44;;;;;;;24.30;5.63;;;;;;;10.02;67.94;103029.91;7391174;19;20024;-46
2023/05/26 02:33:11;;;;;;;24.00;5.88;;;;;;;10.04;67.92;103021.94;7388082;19;20029;-48
2023/05/26 02:35:38;;;;;;;23.83;6.70;;;;;;;10.31;67.12;103028.06;7392425;19;20019;-47
2023/05/26 02:38:05;;;;;;;21.73;5.53;;;;;;;10.39;66.55;103030.44;7392297;19;20030;-46
2023/05/26 02:40:33;;;;;;;23.52;6.25;;;;;;;9.95;67.90;103028.41;7391379;19;20006;-48
2023/05/26 02:43:00;;;;;;;26.38;6.13;;;;;;;9.77;68.54;103034.34;7392391;19;20096;-47
2023/05/26 02:45:27;;;;;;;22.65;5.97;;;;;;;9.64;69.13;103023.28;7391743;19;20015;-44
2023/05/26 02:47:54;;;;;;;20.38;5.65;;;;;;;9.53;69.64;103036.84;7392588;19;20344;-44
2023/05/26 02:50:22;;;;;;;28.08;6.30;;;;;;;9.54;69.47;103027.16;7391051;19;20010;-45
2023/05/26 02:52:49;;;;;;;19.95;5.78;;;;;;;9.63;69.02;103034.78;7388521;19;20023;-48
2023/05/26 02:55:16;;;;;;;27.15;5.80;;;;;;;9.61;69.19;103030.44;7391292;19;20025;-46
2023/05/26 02:57:43;;;;;;;25.80;6.03;;;;;;;9.92;68.07;103024.97;7391984;19;20010;-49
2023/05/26 03:00:12;;;;;;;22.83;5.78;;;;;;;10.07;67.23;103029.75;7391014;19;20520;-45
2023/05/26 03:02:39;;;;;;;18.67;5.15;;;;;;;10.24;66.62;103030.03;7389808;19;20423;-45
2023/05/26 03:05:07;;;;;;;22.95;5.63;;;;;;;10.18;66.81;103022.28;7391033;19;20048;-48
2023/05/26 03:07:35;;;;;;;27.70;6.68;;;;;;;9.66;68.44;103032.03;7391368;19;20509;-45
2023/05/26 03:10:02;;;;;;;20.90;6.03;;;;;;;9.74;68.59;103037.06;7390815;19;20023;-45
2023/05/26 03:12:29;;;;;;;22.42;5.43;;;;;;;10.03;67.60;103030.78;7389387;19;20031;-44
2023/05/26 03:14:57;;;;;;;20.05;5.78;;;;;;;9.75;68.08;103031.72;7390905;19;20015;-44
2023/05/26 03:17:25;;;;;;;21.08;5.60;;;;;;;9.76;68.64;103035.22;7389932;19;20025;-43
2023/05/26 03:19:52;;;;;;;26.90;5.90;;;;;;;9.74;68.24;103031.78;7390299;19;20014;-44
2023/05/26 03:22:19;;;;;;;24.20;5.55;;;;;;;9.41;69.54;103033.75;7388322;19;20039;-45
2023/05/26 03:25:07;;;;;;;22.30;6.20;;;;;;;9.23;70.09;103030.78;7390440;19;20052;-44
2023/05/26 03:27:38;;;;;;;21.38;6.22;;;;;;;9.34;70.21;103035.72;7390900;19;20396;-45
2023/05/26 03:30:06;;;;;;;26.23;6.13;;;;;;;9.67;68.69;103031.13;7390822;19;20014;-46
2023/05/26 03:32:33;;;;;;;23.45;5.80;;;;;;;9.42;69.52;103033.69;7388930;19;20018;-47
2023/05/26 03:35:00;;;;;;;21.52;5.50;;;;;;;9.25;69.95;103034.22;7389893;19;20018;-45
2023/05/26 03:37:28;;;;;;;23.58;5.70;;;;;;;9.23;70.10;103030.78;7390643;19;20499;-45
2023/05/26 03:39:55;;;;;;;21.98;5.55;;;;;;;9.16;70.68;103041.59;7390042;19;20019;-46
2023/05/26 03:42:22;;;;;;;21.85;6.28;;;;;;;9.25;70.35;103036.88;7389064;19;20029;-45
2023/05/26 03:44:49;;;;;;;22.98;5.82;;;;;;;9.27;70.28;103043.00;7388930;19;20428;-47
2023/05/26 03:47:16;;;;;;;23.88;5.70;;;;;;;9.24;70.12;103042.22;7390537;19;20015;-45
2023/05/26 03:49:43;;;;;;;23.35;6.05;;;;;;;9.19;70.75;103049.41;7389613;19;20014;-47
2023/05/26 03:52:10;;;;;;;24.35;5.90;;;;;;;9.17;70.72;103054.75;7388642;19;20014;-45
2023/05/26 03:54:38;;;;;;;24.65;5.88;;;;;;;9.22;70.54;103051.97;7387929;19;20011;-45
2023/05/26 03:57:05;;;;;;;23.48;5.20;;;;;;;9.20;70.53;103051.16;7389954;19;20025;-46
2023/05/26 03:59:33;;;;;;;26.08;6.40;;;;;;;9.26;70.42;103059.75;7388966;19;20094;-45
2023/05/26 04:02:00;;;;;;;18.17;5.15;;;;;;;9.48;69.66;103049.38;7387443;19;20022;-44
2023/05/26 04:04:27;;;;;;;19.80;5.25;;;;;;;9.86;68.07;103052.53;7389607;19;20044;-48
2023/05/26 04:06:55;;;;;;;20.80;5.32;;;;;;;10.04;67.42;103055.50;7389481;19;20026;-45
2023/05/26 04:09:22;;;;;;;19.55;5.70;;;;;;;10.01;67.64;103053.81;7388542;19;20447;-45
2023/05/26 04:11:49;;;;;;;21.58;5.82;;;;;;;9.98;67.43;103046.81;7388476;19;20049;-44
2023/05/26 04:14:16;;;;;;;21.30;5.47;;;;;;;9.73;68.44;103054.75;7389429;19;20014;-45
2023/05/26 04:16:43;;;;;;;23.88;6.22;;;;;;;9.58;69.29;103057.88;7389562;19;20019;-44
2023/05/26 04:19:10;;;;;;;20.95;5.78;;;;;;;9.53;69.61;103060.66;7388962;19;20018;-45
2023/05/26 04:21:37;;;;;;;22.38;5.82;;;;;;;9.56;69.96;103066.78;7388135;19;20029;-46
2023/05/26 04:24:05;;;;;;;25.05;6.10;;;;;;;9.60;69.80;103071.91;7387594;19;20547;-45
2023/05/26 04:26:34;;;;;;;20.30;5.35;;;;;;;9.59;69.94;103070.19;7389659;19;20018;-45
2023/05/26 04:29:02;;;;;;;18.05;5.32;;;;;;;9.58;70.05;103070.22;7389013;19;20036;-45
2023/05/26 04:31:29;;;;;;;27.88;6.28;;;;;;;9.63;69.70;103073.59;7387875;19;20019;-46
2023/05/26 04:33:57;;;;;;;24.77;6.25;;;;;;;9.70;69.44;103068.06;7389216;19;20015;-45
2023/05/26 04:36:24;;;;;;;19.55;5.43;;;;;;;9.67;69.60;103075.22;7388796;19;20385;-45
2023/05/26 04:38:54;;;;;;;19.45;5.75;;;;;;;9.80;69.44;103065.97;7388012;19;20438;-44
2023/05/26 04:41:21;;;;;;;26.77;6.32;;;;;;;9.89;69.26;103072.75;7387768;19;20474;-46
2023/05/26 04:43:49;;;;;;;23.38;5.85;;;;;;;9.92;69.31;103064.69;7386734;19;20529;-45
2023/05/26 04:46:16;;;;;;;24.38;6.40;;;;;;;9.94;69.13;103068.16;7388527;19;20018;-48
2023/05/26 04:48:43;;;;;;;22.30;6.30;;;;;;;9.96;69.19;103075.13;7387751;19;20015;-44
2023/05/26 04:51:11;;;;;;;18.77;5.68;;;;;;;10.04;68.82;103082.81;7388091;19;20429;-45
2023/05/26 04:53:38;;;;;;;30.73;6.10;;;;;;;10.05;68.94;103076.59;7386829;19;20025;-46
2023/05/26 04:56:06;;;;;;;23.98;5.70;;;;;;;10.48;67.75;103083.94;7389298;19;20023;-45
2023/05/26 04:58:33;;;;;;;25.67;6.97;;;;;;;10.76;66.50;103087.38;7394664;19;20023;-45
2023/05/26 05:01:02;;;;;;;20.15;5.53;;;;;;;10.96;65.70;103085.72;7395295;19;20022;-45
2023/05/26 05:03:34;;;;;;;24.13;6.32;;;;;;;11.03;65.61;103091.66;7393857;19;20014;-46
2023/05/26 05:06:01;;;;;;;26.45;6.35;;;;;;;10.95;65.76;103097.25;7394889;19;20026;-46
2023/05/26 05:08:30;;;;;;;25.48;6.68;;;;;;;10.95;65.54;103101.66;7394454;19;20061;-44
2023/05/26 05:10:57;;;;;;;29.17;6.70;;;;;;;10.98;65.51;103107.72;7394798;19;20349;-47
2023/05/26 05:13:24;;;;;;;24.55;6.18;;;;;;;11.05;65.51;103104.84;7393940;19;20018;-48
2023/05/26 05:15:51;;;;;;;20.20;5.63;;;;;;;11.09;65.41;103102.00;7395184;19;20022;-44
2023/05/26 05:18:18;;;;;;;25.48;6.05;;;;;;;11.15;64.85;103108.88;7395918;19;20030;-45
2023/05/26 05:20:45;;;;;;;24.45;6.32;;;;;;;11.17;64.97;103112.31;7394499;19;20106;-45
2023/05/26 05:23:13;;;;;;;23.67;5.72;;;;;;;11.16;64.83;103110.59;7395002;19;20018;-45
2023/05/26 05:25:41;;;;;;;25.40;6.40;;;;;;;11.10;64.78;103121.44;7392526;19;20110;-45
2023/05/26 05:28:11;;;;;;;24.38;7.05;;;;;;;11.26;64.77;103124.41;7395165;19;20029;-48
2023/05/26 05:30:38;;;;;;;25.33;6.07;;;;;;;11.23;64.60;103128.88;7393280;19;20334;-45
2023/05/26 05:33:07;;;;;;;26.40;6.53;;;;;;;11.25;64.66;103123.50;7393443;19;20015;-45
2023/05/26 05:35:35;;;;;;;28.73;6.95;;;;;;;11.32;64.24;103121.47;7394047;19;20022;-45
2023/05/26 05:38:03;;;;;;;24.95;6.20;;;;;;;11.41;63.96;103140.56;7394547;19;20031;-46
2023/05/26 05:40:30;;;;;;;23.30;5.93;;;;;;;11.38;64.14;103130.06;7392974;19;20014;-47
2023/05/26 05:42:57;;;;;;;21.55;6.35;;;;;;;11.38;64.25;103135.38;7394640;19;20470;-45
2023/05/26 05:45:24;;;;;;;27.35;6.07;;;;;;;11.42;64.17;103138.78;7393922;19;20011;-48
2023/05/26 05:47:51;;;;;;;25.25;6.55;;;;;;;11.45;64.23;103136.00;7394436;19;20031;-44
2023/05/26 05:50:19;;;;;;;23.83;6.35;;;;;;;11.48;64.43;103141.19;7391766;19;20380;-44
2023/05/26 05:52:46;;;;;;;22.80;5.60;;;;;;;11.56;64.40;103141.78;7393267;19;20018;-45
2023/05/26 05:55:13;;;;;;;24.25;5.55;;;;;;;11.53;64.12;103143.69;7393563;19;20023;-48
2023/05/26 05:57:41;;;;;;;22.90;6.53;;;;;;;11.54;63.86;103146.25;7393421;19;20530;-45
2023/05/26 06:00:09;;;;;;;27.75;6.57;;;;;;;11.58;64.11;103153.16;7392955;19;20022;-44
2023/05/26 06:02:37;;;;;;;25.60;6.28;;;;;;;11.64;63.91;103149.44;7391658;19;20113;-44
2023/05/26 06:05:04;;;;;;;25.02;6.10;;;;;;;11.70;63.86;103160.66;7393236;19;20024;-44
2023/05/26 06:07:32;;;;;;;23.65;5.82;;;;;;;11.83;64.11;103155.75;7391953;19;20018;-45
2023/05/26 06:09:59;;;;;;;24.75;5.90;;;;;;;11.90;64.00;103153.69;7390940;19;20078;-45
2023/05/26 06:12:27;;;;;;;25.13;6.20;;;;;;;11.75;64.18;103136.56;7391037;19;20018;-44
2023/05/26 06:14:54;;;;;;;23.50;6.53;;;;;;;11.75;64.65;103149.84;7392351;19;20014;-44
2023/05/26 06:17:21;;;;;;;23.75;6.18;;;;;;;11.88;64.51;103152.91;7394340;19;20472;-48
2023/05/26 06:19:48;;;;;;;26.75;6.13;;;;;;;11.94;64.45;103145.56;7390418;19;20021;-45
2023/05/26 06:22:15;;;;;;;23.65;5.95;;;;;;;12.07;63.99;103145.06;7389592;19;20022;-44
2023/05/26 06:24:42;;;;;;;22.65;6.40;;;;;;;12.06;63.66;103146.84;7392556;19;20372;-45
2023/05/26 06:27:09;;;;;;;20.23;6.13;;;;;;;12.09;63.12;103148.50;7390983;19;20010;-46
2023/05/26 06:29:36;;;;;;;22.00;6.22;;;;;;;12.19;63.35;103153.38;7391957;19;20054;-47
2023/05/26 06:32:04;;;;;;;26.55;6.03;;;;;;;12.28;62.84;103141.47;7391215;19;20025;-49
2023/05/26 06:34:31;;;;;;;23.00;5.90;;;;;;;12.40;61.97;103148.94;7390462;19;20018;-46
2023/05/26 06:36:58;;;;;;;21.25;5.35;;;;;;;12.35;61.64;103150.91;7392301;19;20020;-45
2023/05/26 06:39:25;;;;;;;24.88;6.32;;;;;;;12.35;61.64;103156.22;7391640;19;20019;-45
2023/05/26 06:41:53;;;;;;;23.02;5.63;;;;;;;12.43;61.41;103153.25;7386754;19;20014;-44
2023/05/26 06:44:20;;;;;;;20.98;5.35;;;;;;;12.52;60.71;103152.88;7392072;19;20014;-45
2023/05/26 06:46:47;;;;;;;24.95;5.65;;;;;;;12.60;60.86;103152.53;7391252;19;20480;-44
2023/05/26 06:49:15;;;;;;;21.88;5.10;;;;;;;12.71;60.67;103162.72;7391182;19;20040;-44
2023/05/26 06:51:42;;;;;;;20.27;5.18;;;;;;;12.73;60.40;103156.38;7390710;19;20094;-46
2023/05/26 06:54:09;;;;;;;22.08;5.50;;;;;;;12.77;60.25;103159.75;7389855;19;20018;-45
2023/05/26 06:56:36;;;;;;;19.23;5.47;;;;;;;12.81;59.62;103164.00;7391023;19;20018;-45
2023/05/26 06:59:03;;;;;;;17.17;4.95;;;;;;;12.86;59.75;103167.34;7391062;19;20014;-46
2023/05/26 07:01:30;;;;;;;19.10;5.35;;;;;;;12.85;59.51;103165.59;7390835;19;20018;-46
2023/05/26 07:03:58;;;;;;;18.75;4.80;;;;;;;12.92;59.06;103178.56;7390647;19;20369;-45
2023/05/26 07:06:25;;;;;;;18.58;4.88;;;;;;;13.03;58.22;103174.56;7390504;19;20010;-46
2023/05/26 07:09:10;;;;;;;20.77;5.82;;;;;;;13.03;58.11;103169.25;7389372;19;20029;-45
2023/05/26 07:11:37;;;;;;;20.88;4.80;;;;;;;13.17;58.37;103180.13;7390291;19;20018;-47
2023/05/26 07:14:04;;;;;;;19.17;5.22;;;;;;;13.27;57.99;103175.25;7390635;19;20051;-46
2023/05/26 07:16:31;;;;;;;25.33;5.35;;;;;;;13.26;58.10;103177.06;7390508;19;20018;-46
2023/05/26 07:18:59;;;;;;;20.60;5.30;;;;;;;13.25;58.11;103180.66;7389635;19;20495;-46
2023/05/26 07:21:27;;;;;;;24.55;6.03;;;;;;;13.24;57.65;103183.38;7390377;19;20015;-44
2023/05/26 07:23:54;;;;;;;19.23;4.88;;;;;;;13.25;57.58;103179.81;7390868;19;20033;-45
2023/05/26 07:26:22;;;;;;;20.08;5.75;;;;;;;13.31;57.56;103177.69;7390226;19;20010;-44
2023/05/26 07:28:50;;;;;;;24.05;5.30;;;;;;;13.39;57.50;103182.66;7390083;19;20018;-46
2023/05/26 07:31:18;;;;;;;20.33;4.57;;;;;;;13.24;57.61;103189.59;7390358;19;20014;-46
2023/05/26 07:33:47;;;;;;;21.85;5.03;;;;;;;13.08;57.46;103184.03;7390128;19;20040;-45
2023/05/26 07:36:14;;;;;;;17.30;4.50;;;;;;;13.05;57.18;103191.28;7389971;19;20019;-45
2023/05/26 07:38:41;;;;;;;20.77;4.88;;;;;;;13.16;56.52;103191.69;7389080;19;20010;-46
2023/05/26 07:41:08;;;;;;;19.85;5.03;;;;;;;13.32;55.78;103184.78;7389731;19;20011;-46
2023/05/26 07:43:36;;;;;;;17.63;4.68;;;;;;;13.29;55.90;103181.38;7389825;19;20396;-47
2023/05/26 07:46:03;;;;;;;20.80;4.85;;;;;;;13.15;56.75;103179.31;7390224;19;20021;-46
2023/05/26 07:48:30;;;;;;;18.13;4.70;;;;;;;13.22;56.48;103179.91;7389135;19;20039;-49
2023/05/26 07:50:57;;;;;;;19.60;5.20;;;;;;;13.28;56.35;103182.28;7387891;19;20015;-49
2023/05/26 07:53:25;;;;;;;16.92;5.20;;;;;;;13.36;56.12;103181.03;7388643;19;20014;-46
2023/05/26 07:55:52;;;;;;;21.63;5.10;;;;;;;13.52;55.50;103189.16;7387905;19;20077;-46
2023/05/26 07:58:19;;;;;;;19.73;4.90;;;;;;;13.68;54.91;103180.44;7388498;19;20040;-45
2023/05/26 08:00:46;;;;;;;20.65;4.55;;;;;;;13.72;54.57;103185.53;7389342;19;20022;-46
2023/05/26 08:03:13;;;;;;;20.40;4.93;;;;;;;13.74;53.85;103190.81;7390017;19;20042;-45
2023/05/26 08:05:42;;;;;;;21.98;5.22;;;;;;;13.70;53.84;103183.88;7389431;19;20053;-45
2023/05/26 08:08:09;;;;;;;19.08;4.63;;;;;;;13.74;53.88;103180.16;7388162;19;20035;-46
2023/05/26 08:10:36;;;;;;;20.63;5.05;;;;;;;13.79;53.91;103189.66;7388306;19;20033;-45
2023/05/26 08:13:03;;;;;;;15.90;4.63;;;;;;;13.84;53.93;103178.75;7390019;19;20039;-46
2023/05/26 08:15:30;;;;;;;19.65;5.10;;;;;;;13.94;53.72;103176.53;7387741;19;20469;-45
2023/05/26 08:17:58;;;;;;;20.30;4.90;;;;;;;13.92;53.56;103184.56;7389815;19;20051;-45
2023/05/26 08:20:25;;;;;;;16.73;4.75;;;;;;;13.81;53.90;103178.91;7388389;19;20015;-47
2023/05/26 08:22:52;;;;;;;18.60;4.70;;;;;;;13.68;54.13;103178.63;7389548;19;20018;-47
2023/05/26 08:25:19;;;;;;;18.00;4.32;;;;;;;13.57;53.83;103172.97;7387291;19;20044;-45
2023/05/26 08:27:46;;;;;;;16.98;4.28;;;;;;;13.57;53.70;103170.31;7386926;19;20011;-50
2023/05/26 08:30:14;;;;;;;19.15;4.45;;;;;;;13.65;53.62;103176.97;7386642;19;20403;-45
2023/05/26 08:32:41;;;;;;;18.52;4.72;;;;;;;13.93;53.51;103165.00;7393113;19;20014;-48
2023/05/26 08:35:08;;;;;;;15.75;4.43;;;;;;;14.24;52.12;103167.00;7392673;19;20091;-46
2023/05/26 08:37:35;;;;;;;15.27;4.20;;;;;;;14.41;51.68;103166.13;7394552;19;20468;-45
2023/05/26 08:40:04;;;;;;;16.70;4.50;;;;;;;14.43;51.73;103164.28;7394059;19;20018;-44
2023/05/26 08:42:36;;;;;;;15.98;4.53;;;;;;;14.46;51.59;103163.22;7393986;19;20021;-49
2023/05/26 08:45:03;;;;;;;21.52;5.05;;;;;;;14.65;51.69;103157.84;7395371;19;20027;-44
2023/05/26 08:47:34;;;;;;;15.75;4.15;;;;;;;14.75;51.17;103157.28;7396550;19;20143;-48
2023/05/26 08:50:04;;;;;;;17.63;4.20;;;;;;;14.74;51.04;103157.38;7393973;19;20024;-47
2023/05/26 08:52:32;;;;;;;17.85;4.30;;;;;;;14.72;51.07;103157.44;7393489;19;20014;-49
2023/05/26 08:55:00;;;;;;;19.85;4.00;;;;;;;14.73;51.55;103159.19;7392970;19;20015;-49
2023/05/26 08:57:32;;;;;;;17.85;5.10;;;;;;;14.72;51.77;103164.56;7396447;19;20022;-48
2023/05/26 08:59:59;;;;;;;18.40;5.13;;;;;;;14.50;51.42;103165.72;7395016;19;20022;-49
2023/05/26 09:02:27;;;;;;;20.50;5.03;;;;;;;14.41;51.76;103157.28;7391990;19;20026;-46
2023/05/26 09:04:54;;;;;;;16.67;4.60;;;;;;;14.46;51.68;103163.22;7395324;19;20039;-49
2023/05/26 09:07:21;;;;;;;21.70;4.65;;;;;;;14.53;51.62;103162.00;7395338;19;20041;-49
2023/05/26 09:09:54;;;;;;;16.97;4.83;;;;;;;14.58;51.24;103162.66;7393710;19;20105;-49
2023/05/26 09:12:22;;;;;;;17.08;4.65;;;;;;;14.47;51.55;103159.66;7393626;19;20029;-47
2023/05/26 09:14:49;;;;;;;17.02;4.50;;;;;;;14.39;51.76;103152.91;7392461;19;20027;-47
2023/05/26 09:17:16;;;;;;;20.58;4.70;;;;;;;14.62;51.81;103153.56;7395448;19;20025;-50
2023/05/26 09:19:43;;;;;;;17.38;5.20;;;;;;;14.96;51.02;103154.44;7394654;19;20015;-49
2023/05/26 09:22:11;;;;;;;17.23;4.50;;;;;;;15.05;50.87;103145.91;7393147;19;20503;-48
2023/05/26 09:24:46;;;;;;;18.17;4.43;;;;;;;14.74;51.38;103155.56;7394454;19;20018;-47
2023/05/26 09:27:18;;;;;;;14.65;4.57;;;;;;;14.49;51.70;103149.75;7394814;19;20014;-48
2023/05/26 09:29:53;;;;;;;17.05;4.38;;;;;;;14.68;51.22;103152.34;7394252;19;20035;-46
2023/05/26 09:32:27;;;;;;;16.10;4.32;;;;;;;14.98;50.09;103150.72;7393224;19;20019;-46
2023/05/26 09:35:00;;;;;;;18.48;4.60;;;;;;;15.20;49.03;103145.09;7392258;19;20385;-47
2023/05/26 09:37:32;;;;;;;16.90;4.65;;;;;;;15.28;48.88;103144.66;7394785;19;20043;-46
2023/05/26 09:40:08;;;;;;;14.02;4.13;;;;;;;15.06;49.59;103144.97;7393496;19;20022;-44
2023/05/26 09:42:37;;;;;;;15.20;4.85;;;;;;;14.94;49.41;103154.50;7391321;19;20021;-46
2023/05/26 09:45:04;;;;;;;15.20;4.55;;;;;;;14.87;49.98;103148.63;7393852;19;20082;-45
2023/05/26 09:47:35;;;;;;;17.77;4.15;;;;;;;14.79;49.97;103147.31;7394601;19;20018;-46
2023/05/26 09:50:04;;;;;;;17.25;4.35;;;;;;;14.77;50.09;103147.41;7394014;19;20022;-48
2023/05/26 09:52:36;;;;;;;15.20;3.75;;;;;;;14.97;49.96;103140.13;7392342;19;20026;-45
2023/05/26 09:55:03;;;;;;;16.13;4.53;;;;;;;15.19;49.06;103139.84;7391818;19;20463;-47
2023/05/26 09:57:35;;;;;;;16.90;4.32;;;;;;;15.51;47.87;103140.72;7394144;19;20023;-49
2023/05/26 10:00:12;;;;;;;15.88;4.15;;;;;;;15.66;47.73;103129.19;7392273;19;20015;-49
2023/05/26 10:02:40;;;;;;;17.15;4.07;;;;;;;15.56;48.34;103143.97;7391941;19;20018;-46
2023/05/26 10:05:08;;;;;;;15.50;4.05;;;;;;;15.36;48.38;103142.41;7393606;19;20030;-50
2023/05/26 10:07:36;;;;;;;12.98;4.20;;;;;;;15.19;48.50;103145.19;7393358;19;20082;-50
2023/05/26 10:10:04;;;;;;;14.40;3.97;;;;;;;15.17;48.36;103144.38;7392944;19;20507;-48
2023/05/26 10:12:33;;;;;;;18.08;4.63;;;;;;;15.23;48.34;103144.91;7389501;19;20018;-48
2023/05/26 10:15:02;;;;;;;21.65;5.18;;;;;;;15.23;47.83;103142.25;7391535;19;20038;-46
2023/05/26 10:17:30;;;;;;;18.17;4.40;;;;;;;15.22;47.58;103148.50;7393529;19;20042;-48
2023/05/26 10:19:59;;;;;;;16.08;3.85;;;;;;;15.22;47.72;103135.16;7392343;19;20017;-44
2023/05/26 10:22:29;;;;;;;16.13;4.10;;;;;;;15.30;47.21;103140.97;7390690;19;20018;-47
2023/05/26 10:25:15;;;;;;;17.05;4.25;;;;;;;15.37;46.56;103136.13;7392651;19;20063;-49
2023/05/26 10:27:53;;;;;;;18.25;4.50;;;;;;;15.39;46.65;103134.25;7393161;19;20023;-48
2023/05/26 10:30:22;;;;;;;16.20;4.13;;;;;;;15.53;47.10;103144.13;7390100;19;20037;-50
2023/05/26 10:33:06;;;;;;;14.90;4.38;;;;;;;15.69;46.68;103149.53;7392930;19;20019;-48
2023/05/26 10:35:33;;;;;;;16.60;3.90;;;;;;;15.62;47.26;103148.97;7388769;19;20491;-46
2023/05/26 10:38:00;;;;;;;16.20;4.40;;;;;;;15.64;47.35;103144.38;7386263;19;20019;-47
2023/05/26 10:40:33;;;;;;;12.80;3.70;;;;;;;15.68;46.85;103138.00;7391175;19;20090;-46
2023/05/26 10:43:17;;;;;;;19.07;4.73;;;;;;;15.69;46.53;103153.06;7392202;19;20015;-46
2023/05/26 10:45:55;;;;;;;14.20;3.92;;;;;;;15.79;46.31;103140.88;7391772;19;20018;-46
2023/05/26 10:48:40;;;;;;;18.75;4.55;;;;;;;16.07;45.28;103137.47;7391222;19;20022;-45
2023/05/26 10:51:09;;;;;;;17.48;4.72;;;;;;;16.03;45.49;103140.44;7391231;19;20014;-45
2023/05/26 10:53:42;;;;;;;17.55;4.38;;;;;;;15.84;46.26;103137.97;7390155;19;20078;-48
2023/05/26 10:56:12;;;;;;;16.52;4.18;;;;;;;15.64;47.22;103128.34;7393298;19;20078;-49
2023/05/26 10:58:50;;;;;;;14.38;4.07;;;;;;;15.71;47.06;103127.09;7391113;19;20022;-47
2023/05/26 11:01:26;;;;;;;14.60;4.00;;;;;;;15.81;46.52;103127.44;7391632;19;20019;-47
2023/05/26 11:04:08;;;;;;;15.75;4.25;;;;;;;16.00;46.32;103128.09;7390030;19;20390;-46
2023/05/26 11:07:00;;;;;;;15.18;4.28;;;;;;;16.27;44.72;103122.91;7390891;19;20155;-46
2023/05/26 11:09:28;;;;;;;16.67;4.25;;;;;;;16.23;44.65;103118.72;7389457;19;20047;-47
2023/05/26 11:11:57;;;;;;;16.50;4.55;;;;;;;16.18;45.56;103118.13;7389835;19;20052;-45
2023/05/26 11:14:29;;;;;;;16.25;4.18;;;;;;;16.29;45.20;103117.47;7390580;19;20028;-45
2023/05/26 11:17:01;;;;;;;16.40;4.55;;;;;;;16.40;44.94;103111.47;7391210;19;20594;-46
2023/05/26 11:19:38;;;;;;;15.00;3.97;;;;;;;16.36;45.12;103115.28;7390104;19;20512;-45
2023/05/26 11:22:08;;;;;;;15.77;4.45;;;;;;;16.35;45.72;103109.09;7389355;19;20336;-46
2023/05/26 11:24:36;;;;;;;18.15;4.53;;;;;;;16.36;45.92;103116.16;7390377;19;20074;-47
2023/05/26 11:27:05;;;;;;;17.20;4.05;;;;;;;16.17;46.60;103112.84;7390992;19;20026;-46